createdAt,value
2022-11-30T00:00:55.373Z,23.15
2022-11-30T00:03:23.040Z,23.45
2022-11-30T00:05:50.680Z,23.85
2022-11-30T00:08:18.164Z,21.00
2022-11-30T00:10:45.492Z,19.40
2022-11-30T00:13:12.752Z,20.40
2022-11-30T00:15:40.013Z,21.70
2022-11-30T00:18:07.311Z,19.65
2022-11-30T00:20:34.598Z,20.73
2022-11-30T00:23:01.830Z,20.92
2022-11-30T00:25:29.108Z,23.73
2022-11-30T00:27:56.354Z,21.95
2022-11-30T00:30:23.552Z,20.40
2022-11-30T00:32:50.764Z,19.35
2022-11-30T00:35:18.126Z,19.15
2022-11-30T00:37:45.361Z,18.90
2022-11-30T00:40:12.912Z,20.05
2022-11-30T00:42:40.174Z,19.60
2022-11-30T00:45:07.521Z,19.27
2022-11-30T00:47:34.812Z,18.52
2022-11-30T00:50:02.093Z,19.33
2022-11-30T00:52:30.565Z,19.77
2022-11-30T00:54:57.803Z,20.20
2022-11-30T00:57:25.008Z,22.10
2022-11-30T00:59:52.261Z,22.75
2022-11-30T01:02:19.589Z,19.92
2022-11-30T01:04:47.099Z,23.17
2022-11-30T01:07:14.537Z,22.42
2022-11-30T01:09:41.777Z,22.45
2022-11-30T01:12:09.005Z,21.35
2022-11-30T01:14:36.224Z,21.65
2022-11-30T01:17:03.502Z,21.90
2022-11-30T01:19:30.734Z,22.17
2022-11-30T01:21:57.960Z,21.50
2022-11-30T01:24:25.174Z,19.15
2022-11-30T01:26:52.432Z,18.70
2022-11-30T01:29:19.688Z,18.70
2022-11-30T01:31:46.952Z,17.75
2022-11-30T01:34:14.211Z,19.15
2022-11-30T01:36:41.548Z,19.75
2022-11-30T01:39:09.660Z,19.67
2022-11-30T01:41:37.348Z,19.98
2022-11-30T01:44:07.311Z,20.02
2022-11-30T01:46:44.093Z,20.02
2022-11-30T01:49:11.373Z,22.02
2022-11-30T01:51:38.603Z,19.88
2022-11-30T01:54:07.076Z,20.35
2022-11-30T01:56:34.603Z,17.25
2022-11-30T01:59:01.928Z,18.98
2022-11-30T02:01:29.331Z,19.17
2022-11-30T02:04:05.354Z,19.15
2022-11-30T02:06:32.664Z,17.65
2022-11-30T02:09:00.067Z,18.42
2022-11-30T02:11:28.695Z,19.10
2022-11-30T02:13:58.776Z,17.63
2022-11-30T02:16:31.356Z,20.35
2022-11-30T02:19:01.612Z,19.35
2022-11-30T02:21:35.817Z,18.85
2022-11-30T02:24:18.404Z,18.48
2022-11-30T02:26:52.483Z,18.27
2022-11-30T02:29:19.814Z,17.27
2022-11-30T02:32:02.117Z,17.65
2022-11-30T02:34:30.470Z,17.70
2022-11-30T02:36:59.108Z,17.67
2022-11-30T02:39:26.604Z,18.35
2022-11-30T02:41:53.815Z,16.80
2022-11-30T02:44:21.833Z,16.45
2022-11-30T02:46:58.580Z,15.70
2022-11-30T02:49:31.539Z,16.38
2022-11-30T02:51:59.248Z,17.02
2022-11-30T02:54:26.546Z,17.35
2022-11-30T02:56:53.788Z,15.50
2022-11-30T02:59:21.273Z,18.98
2022-11-30T03:01:48.932Z,16.20
2022-11-30T03:04:16.348Z,16.73
2022-11-30T03:06:43.594Z,19.65
2022-11-30T03:09:10.910Z,18.92
2022-11-30T03:11:38.129Z,17.10
2022-11-30T03:14:05.366Z,16.13
2022-11-30T03:16:33.608Z,16.77
2022-11-30T03:19:00.929Z,18.42
2022-11-30T03:21:29.034Z,18.55
2022-11-30T03:23:56.260Z,16.75
2022-11-30T03:26:23.528Z,16.80
2022-11-30T03:28:50.794Z,17.63
2022-11-30T03:31:18.048Z,18.98
2022-11-30T03:33:45.315Z,18.13
2022-11-30T03:36:12.906Z,18.80
2022-11-30T03:38:40.179Z,17.67
2022-11-30T03:41:14.368Z,15.77
2022-11-30T03:43:41.606Z,16.25
2022-11-30T03:46:09.120Z,16.90
2022-11-30T03:48:36.708Z,15.13
2022-11-30T03:51:04.740Z,16.55
2022-11-30T03:53:32.374Z,14.93
2022-11-30T03:56:01.260Z,14.60
2022-11-30T03:58:28.603Z,13.77
2022-11-30T04:01:11.517Z,14.90
2022-11-30T04:03:38.807Z,14.30
2022-11-30T04:06:07.348Z,14.68
2022-11-30T04:08:34.753Z,14.55
2022-11-30T04:11:02.897Z,13.70
2022-11-30T04:13:30.833Z,16.35
2022-11-30T04:15:58.195Z,13.73
2022-11-30T04:18:26.390Z,14.13
2022-11-30T04:20:57.747Z,15.27
2022-11-30T04:23:25.506Z,13.98
2022-11-30T04:25:53.080Z,16.40
2022-11-30T04:28:20.603Z,14.75
2022-11-30T04:30:48.673Z,14.25
2022-11-30T04:33:16.776Z,13.63
2022-11-30T04:35:49.070Z,14.13
2022-11-30T04:38:16.440Z,13.95
2022-11-30T04:40:44.256Z,13.18
2022-11-30T04:43:11.948Z,13.20
2022-11-30T04:45:39.366Z,12.15
2022-11-30T04:48:07.336Z,12.88
2022-11-30T04:50:34.751Z,14.40
2022-11-30T04:53:01.968Z,14.02
2022-11-30T04:55:29.329Z,14.60
2022-11-30T04:57:56.749Z,13.35
2022-11-30T05:00:24.049Z,13.80
2022-11-30T05:02:53.166Z,13.18
2022-11-30T05:05:20.706Z,13.20
2022-11-30T05:08:06.271Z,14.00
2022-11-30T05:10:33.954Z,14.15
2022-11-30T05:13:01.287Z,15.00
2022-11-30T05:15:28.682Z,13.35
2022-11-30T05:17:58.970Z,15.30
2022-11-30T05:20:26.204Z,14.27
2022-11-30T05:22:53.433Z,14.10
2022-11-30T05:25:20.712Z,13.77
2022-11-30T05:27:47.942Z,12.50
2022-11-30T05:30:15.252Z,14.30
2022-11-30T05:32:42.487Z,12.23
2022-11-30T05:35:10.182Z,13.40
2022-11-30T05:37:37.662Z,12.02
2022-11-30T05:40:05.270Z,11.45
2022-11-30T05:42:32.503Z,12.68
2022-11-30T05:44:59.696Z,10.85
2022-11-30T05:47:27.542Z,10.60
2022-11-30T05:49:54.750Z,11.90
2022-11-30T05:52:21.969Z,9.40
2022-11-30T05:54:49.417Z,9.98
2022-11-30T05:57:16.973Z,9.07
2022-11-30T05:59:44.178Z,8.02
2022-11-30T06:02:11.524Z,8.55
2022-11-30T06:04:38.807Z,7.97
2022-11-30T06:07:06.105Z,7.68
2022-11-30T06:09:33.333Z,8.07
2022-11-30T06:12:00.584Z,6.75
2022-11-30T06:14:27.813Z,7.95
2022-11-30T06:16:55.074Z,8.15
2022-11-30T06:19:22.299Z,7.18
2022-11-30T06:21:49.509Z,7.50
2022-11-30T06:24:16.768Z,8.15
2022-11-30T06:26:43.999Z,8.90
2022-11-30T06:29:11.315Z,7.70
2022-11-30T06:31:38.598Z,9.02
2022-11-30T06:34:05.893Z,9.00
2022-11-30T06:36:36.341Z,9.52
2022-11-30T06:39:03.999Z,10.60
2022-11-30T06:41:31.287Z,9.50
2022-11-30T06:43:58.525Z,9.40
2022-11-30T06:46:27.039Z,9.65
2022-11-30T06:48:54.327Z,10.20
2022-11-30T06:51:21.543Z,8.50
2022-11-30T06:53:48.778Z,8.52
2022-11-30T06:56:16.128Z,9.82
2022-11-30T06:58:43.365Z,8.60
2022-11-30T07:01:15.327Z,8.63
2022-11-30T07:03:43.593Z,8.05
2022-11-30T07:06:14.595Z,7.88
2022-11-30T07:08:42.615Z,7.22
2022-11-30T07:11:10.459Z,8.25
2022-11-30T07:13:37.707Z,6.82
2022-11-30T07:16:06.135Z,7.32
2022-11-30T07:18:33.980Z,7.80
2022-11-30T07:21:01.879Z,7.88
2022-11-30T07:23:54.072Z,7.68
2022-11-30T07:26:23.592Z,7.32
2022-11-30T07:28:54.828Z,6.85
2022-11-30T07:31:24.047Z,6.57
2022-11-30T07:33:51.774Z,7.22
2022-11-30T07:36:19.604Z,7.10
2022-11-30T07:38:47.023Z,7.22
2022-11-30T07:41:14.267Z,8.68
2022-11-30T07:43:41.506Z,9.05
2022-11-30T07:46:08.824Z,9.88
2022-11-30T07:48:36.245Z,8.68
2022-11-30T07:51:07.481Z,9.65
2022-11-30T07:53:34.723Z,9.85
2022-11-30T07:56:09.455Z,11.20
2022-11-30T07:58:36.968Z,10.80
2022-11-30T08:01:04.283Z,10.50
2022-11-30T08:03:36.580Z,10.30
2022-11-30T08:06:14.582Z,9.55
2022-11-30T08:08:42.810Z,8.50
2022-11-30T08:11:11.091Z,10.30
2022-11-30T08:13:38.313Z,9.55
2022-11-30T08:16:06.996Z,10.82
2022-11-30T08:18:34.379Z,12.48
2022-11-30T08:21:02.822Z,10.73
2022-11-30T08:23:38.938Z,12.40
2022-11-30T08:26:26.486Z,10.23
2022-11-30T08:28:54.237Z,9.68
2022-11-30T08:31:41.705Z,10.02
2022-11-30T08:34:11.319Z,7.45
2022-11-30T08:36:38.925Z,9.98
2022-11-30T08:39:07.064Z,9.23
2022-11-30T08:41:35.200Z,10.00
2022-11-30T08:44:02.731Z,12.23
2022-11-30T08:49:22.189Z,9.85
2022-11-30T08:54:40.287Z,7.95
2022-11-30T08:57:07.516Z,8.25
2022-11-30T08:59:34.807Z,8.23
2022-11-30T09:02:02.054Z,7.78
2022-11-30T09:04:29.245Z,7.95
2022-11-30T09:06:59.361Z,7.05
2022-11-30T09:09:26.788Z,7.78
2022-11-30T09:11:54.056Z,7.07
2022-11-30T09:14:21.320Z,7.38
2022-11-30T09:16:48.653Z,6.47
2022-11-30T09:19:15.915Z,6.82
2022-11-30T09:21:48.089Z,6.40
2022-11-30T09:24:18.717Z,7.35
2022-11-30T09:26:45.971Z,8.85
2022-11-30T09:29:13.224Z,7.68
2022-11-30T09:31:40.454Z,8.35
2022-11-30T09:34:07.724Z,7.28
2022-11-30T09:36:36.697Z,6.53
2022-11-30T09:39:04.001Z,6.32
2022-11-30T09:41:37.851Z,6.78
2022-11-30T09:44:20.352Z,6.90
2022-11-30T09:47:00.377Z,5.82
2022-11-30T09:49:36.700Z,5.75
2022-11-30T09:52:05.997Z,9.20
2022-11-30T09:54:37.838Z,8.25
2022-11-30T09:57:10.614Z,9.00
2022-11-30T09:59:38.600Z,7.80
2022-11-30T10:02:15.515Z,7.65
2022-11-30T10:04:42.937Z,8.02
2022-11-30T10:07:10.176Z,8.05
2022-11-30T10:09:53.140Z,10.02
2022-11-30T10:12:33.152Z,10.02
2022-11-30T10:15:18.767Z,9.27
2022-11-30T10:18:07.397Z,11.20
2022-11-30T10:20:40.548Z,9.15
2022-11-30T10:23:21.991Z,10.40
2022-11-30T10:25:57.565Z,8.57
2022-11-30T10:28:48.635Z,8.70
2022-11-30T10:31:17.100Z,9.88
2022-11-30T10:33:48.606Z,8.85
2022-11-30T10:36:27.303Z,9.82
2022-11-30T10:39:00.072Z,9.52
2022-11-30T10:41:32.313Z,8.02
2022-11-30T10:44:20.527Z,8.55
2022-11-30T10:46:54.028Z,9.50
2022-11-30T10:49:23.535Z,7.07
2022-11-30T10:51:53.917Z,11.23
2022-11-30T10:54:22.453Z,10.63
2022-11-30T10:56:50.076Z,7.97
2022-11-30T10:59:47.261Z,9.90
2022-11-30T11:02:33.302Z,11.00
2022-11-30T11:05:13.649Z,10.15
2022-11-30T11:07:47.203Z,9.27
2022-11-30T11:10:18.676Z,8.35
2022-11-30T11:12:55.767Z,8.50
2022-11-30T11:15:24.864Z,9.52
2022-11-30T11:17:52.674Z,7.63
2022-11-30T11:20:36.580Z,7.10
2022-11-30T11:23:04.600Z,7.30
2022-11-30T11:25:36.039Z,9.65
2022-11-30T11:28:14.983Z,9.18
2022-11-30T11:30:42.420Z,9.02
2022-11-30T11:33:12.551Z,9.93
2022-11-30T11:35:41.558Z,9.80
2022-11-30T11:38:21.916Z,8.52
2022-11-30T11:41:02.820Z,8.90
2022-11-30T11:43:32.346Z,9.15
2022-11-30T11:46:12.405Z,10.52
2022-11-30T11:48:47.615Z,9.98
2022-11-30T11:51:14.975Z,10.05
2022-11-30T11:53:51.649Z,10.10
2022-11-30T11:56:34.776Z,10.80
2022-11-30T11:59:13.444Z,13.25
2022-11-30T12:01:41.461Z,11.52
2022-11-30T12:04:28.012Z,12.55
2022-11-30T12:06:56.462Z,10.82
2022-11-30T12:09:26.130Z,10.75
2022-11-30T12:11:53.499Z,12.70
2022-11-30T12:14:20.824Z,12.10
2022-11-30T12:16:48.104Z,12.00
2022-11-30T12:19:17.030Z,11.40
2022-11-30T12:22:01.148Z,12.43
2022-11-30T12:24:43.475Z,11.73
2022-11-30T12:27:29.249Z,9.57
2022-11-30T12:32:32.920Z,9.65
2022-11-30T12:35:10.007Z,10.20
2022-11-30T12:37:55.566Z,10.30
2022-11-30T12:40:26.081Z,9.63
2022-11-30T12:43:02.624Z,9.48
2022-11-30T12:45:29.889Z,11.23
2022-11-30T12:48:04.758Z,10.32
2022-11-30T12:50:41.012Z,10.27
2022-11-30T12:53:18.999Z,11.00
2022-11-30T12:55:52.831Z,10.60
2022-11-30T12:58:26.332Z,11.82
2022-11-30T13:01:05.242Z,9.98
2022-11-30T13:03:45.748Z,11.20
2022-11-30T13:06:15.459Z,9.93
2022-11-30T13:08:58.131Z,11.23
2022-11-30T13:11:29.433Z,12.60
2022-11-30T13:13:58.208Z,11.80
2022-11-30T13:16:26.193Z,13.32
2022-11-30T13:18:55.822Z,12.07
2022-11-30T13:21:40.875Z,20.17
2022-11-30T13:24:23.759Z,16.17
2022-11-30T13:26:50.994Z,12.98
2022-11-30T13:29:32.513Z,13.43
2022-11-30T13:32:06.553Z,12.90
2022-11-30T13:34:33.869Z,11.13
2022-11-30T13:37:03.159Z,12.30
2022-11-30T13:39:31.615Z,11.82
2022-11-30T13:42:01.664Z,13.35
2022-11-30T13:44:38.016Z,13.63
2022-11-30T13:47:06.851Z,13.45
2022-11-30T13:49:35.805Z,12.60
2022-11-30T13:54:57.437Z,13.90
2022-11-30T13:57:30.858Z,14.23
2022-11-30T13:59:59.215Z,13.23
2022-11-30T14:02:44.310Z,13.32
2022-11-30T14:05:14.598Z,12.90
2022-11-30T14:07:42.052Z,14.10
2022-11-30T14:10:28.325Z,13.63
2022-11-30T14:12:58.923Z,14.20
2022-11-30T14:15:31.863Z,13.95
2022-11-30T14:17:59.497Z,14.10
2022-11-30T14:20:32.060Z,13.68
2022-11-30T14:23:09.245Z,15.02
2022-11-30T14:25:36.616Z,15.07
2022-11-30T14:28:06.031Z,14.88
2022-11-30T14:30:34.112Z,15.50
2022-11-30T14:33:05.216Z,16.73
2022-11-30T14:35:33.037Z,16.63
2022-11-30T14:38:01.062Z,20.75
2022-11-30T14:40:33.578Z,21.35
2022-11-30T14:43:01.954Z,19.48
2022-11-30T14:45:31.010Z,19.10
2022-11-30T14:48:17.914Z,18.70
2022-11-30T14:50:47.337Z,19.38
2022-11-30T14:53:33.214Z,19.75
2022-11-30T14:56:00.475Z,20.75
2022-11-30T14:58:27.770Z,24.63
2022-11-30T15:00:55.221Z,21.52
2022-11-30T15:03:34.625Z,22.05
2022-11-30T15:06:05.890Z,22.02
2022-11-30T15:08:38.748Z,21.60
2022-11-30T15:11:07.496Z,23.05
2022-11-30T15:13:35.180Z,22.02
2022-11-30T15:16:02.425Z,20.95
2022-11-30T15:18:29.697Z,22.38
2022-11-30T15:21:00.250Z,22.15
2022-11-30T15:23:27.723Z,21.58
2022-11-30T15:26:12.432Z,21.23
2022-11-30T15:28:40.925Z,21.58
2022-11-30T15:31:11.422Z,23.30
2022-11-30T15:33:42.280Z,21.48
2022-11-30T15:36:23.434Z,23.27
2022-11-30T15:38:55.409Z,23.23
2022-11-30T15:41:24.385Z,22.42
2022-11-30T15:43:53.180Z,24.63
2022-11-30T15:46:30.687Z,28.35
2022-11-30T15:49:17.135Z,27.35
2022-11-30T15:51:50.059Z,28.65
2022-11-30T15:54:41.736Z,28.95
2022-11-30T15:57:09.376Z,27.40
2022-11-30T15:59:36.873Z,24.50
2022-11-30T16:02:16.671Z,22.85
2022-11-30T16:04:59.068Z,22.35
2022-11-30T16:07:28.454Z,24.23
2022-11-30T16:10:18.824Z,25.15
2022-11-30T16:12:46.848Z,23.33
2022-11-30T16:15:16.922Z,25.40
2022-11-30T16:17:44.183Z,25.38
2022-11-30T16:20:14.912Z,22.40
2022-11-30T16:22:43.148Z,26.00
2022-11-30T16:25:13.723Z,30.08
2022-11-30T16:27:41.449Z,28.55
2022-11-30T16:30:09.012Z,30.30
2022-11-30T16:32:36.278Z,34.22
2022-11-30T16:35:03.613Z,34.63
2022-11-30T16:37:30.879Z,36.88
2022-11-30T16:39:58.229Z,29.75
2022-11-30T16:42:25.950Z,29.40
2022-11-30T16:44:53.207Z,28.48
2022-11-30T16:47:20.444Z,27.73
2022-11-30T16:49:47.967Z,27.65
2022-11-30T16:52:17.862Z,24.55
2022-11-30T16:54:45.109Z,26.85
2022-11-30T16:57:12.411Z,26.48
2022-11-30T16:59:39.621Z,26.48
2022-11-30T17:02:14.927Z,26.50
2022-11-30T17:07:09.284Z,23.92
2022-11-30T17:09:36.611Z,23.98
2022-11-30T17:12:04.306Z,24.05
2022-11-30T17:14:31.527Z,25.25
2022-11-30T17:17:01.101Z,24.67
2022-11-30T17:19:28.464Z,24.55
2022-11-30T17:21:55.767Z,24.23
2022-11-30T17:24:22.991Z,26.80
2022-11-30T17:26:50.278Z,23.88
2022-11-30T17:29:17.634Z,25.42
2022-11-30T17:31:44.869Z,24.90
2022-11-30T17:34:12.321Z,24.13
2022-11-30T17:36:39.617Z,24.13
2022-11-30T17:39:07.742Z,25.20
2022-11-30T17:41:35.339Z,25.55
2022-11-30T17:44:03.047Z,23.48
2022-11-30T17:46:30.390Z,23.85
2022-11-30T17:48:57.730Z,25.85
2022-11-30T17:51:24.990Z,26.20
2022-11-30T17:53:52.332Z,25.50
2022-11-30T17:56:19.563Z,24.85
2022-11-30T17:58:49.270Z,24.45
2022-11-30T18:01:26.531Z,26.33
2022-11-30T18:03:54.866Z,26.77
2022-11-30T18:06:22.365Z,25.92
2022-11-30T18:08:49.778Z,25.75
2022-11-30T18:11:21.376Z,25.05
2022-11-30T18:13:50.388Z,25.77
2022-11-30T18:16:22.118Z,26.63
2022-11-30T18:18:49.740Z,25.60
2022-11-30T18:21:18.409Z,26.63
2022-11-30T18:23:45.778Z,27.70
2022-11-30T18:26:14.328Z,28.88
2022-11-30T18:28:41.936Z,27.30
2022-11-30T18:31:09.296Z,28.58
2022-11-30T18:33:36.938Z,28.65
2022-11-30T18:36:06.756Z,26.90
2022-11-30T18:38:38.100Z,24.98
2022-11-30T18:41:06.626Z,25.25
2022-11-30T18:43:34.313Z,23.95
2022-11-30T18:46:09.051Z,27.55
2022-11-30T18:48:36.915Z,26.40
2022-11-30T18:51:16.483Z,25.33
2022-11-30T18:53:44.004Z,26.33
2022-11-30T18:56:15.889Z,27.23
2022-11-30T18:58:43.392Z,25.83
2022-11-30T19:01:12.776Z,25.88
2022-11-30T19:03:40.261Z,26.80
2022-11-30T19:06:08.274Z,26.55
2022-11-30T19:08:35.964Z,26.83
2022-11-30T19:11:07.096Z,26.90
2022-11-30T19:13:34.636Z,25.58
2022-11-30T19:16:05.753Z,27.08
2022-11-30T19:18:33.529Z,27.90
2022-11-30T19:21:01.107Z,29.88
2022-11-30T19:23:28.604Z,26.63
2022-11-30T19:26:00.734Z,27.27
2022-11-30T19:28:30.275Z,26.38
2022-11-30T19:30:58.372Z,28.65
2022-11-30T19:33:26.179Z,29.00
2022-11-30T19:35:53.692Z,28.83
2022-11-30T19:38:20.973Z,25.73
2022-11-30T19:40:48.272Z,27.92
2022-11-30T19:43:15.525Z,24.40
2022-11-30T19:45:42.853Z,26.20
2022-11-30T19:48:10.183Z,24.80
2022-11-30T19:50:37.699Z,22.80
2022-11-30T19:53:06.009Z,24.90
2022-11-30T19:55:33.559Z,25.27
2022-11-30T19:58:00.863Z,25.30
2022-11-30T20:00:28.079Z,23.58
2022-11-30T20:02:55.401Z,22.50
2022-11-30T20:05:22.704Z,22.08
2022-11-30T20:07:50.078Z,23.02
2022-11-30T20:10:17.432Z,20.17
2022-11-30T20:12:44.665Z,21.00
2022-11-30T20:15:12.166Z,23.60
2022-11-30T20:17:39.485Z,22.63
2022-11-30T20:20:07.123Z,22.48
2022-11-30T20:22:34.428Z,19.48
2022-11-30T20:25:01.797Z,19.38
2022-11-30T20:27:29.626Z,21.05
2022-11-30T20:29:56.869Z,19.35
2022-11-30T20:32:24.321Z,20.08
2022-11-30T20:34:51.976Z,19.00
2022-11-30T20:37:19.417Z,17.75
2022-11-30T20:39:46.737Z,19.27
2022-11-30T20:42:14.241Z,18.85
2022-11-30T20:44:41.612Z,17.95
2022-11-30T20:47:08.854Z,16.60
2022-11-30T20:49:36.100Z,17.45
2022-11-30T20:52:03.560Z,16.70
2022-11-30T20:54:31.690Z,15.43
2022-11-30T20:56:59.248Z,14.77
2022-11-30T20:59:26.897Z,15.27
2022-11-30T21:01:55.542Z,15.27
2022-11-30T21:04:23.976Z,15.23
2022-11-30T21:06:51.262Z,14.10
2022-11-30T21:09:19.122Z,14.90
2022-11-30T21:11:47.098Z,15.02
2022-11-30T21:14:14.581Z,16.15
2022-11-30T21:16:41.933Z,13.98
2022-11-30T21:19:10.752Z,15.40
2022-11-30T21:21:38.356Z,17.17
2022-11-30T21:24:07.017Z,13.57
2022-11-30T21:26:38.435Z,13.25
2022-11-30T21:29:07.407Z,14.60
2022-11-30T21:31:35.051Z,15.13
2022-11-30T21:34:02.604Z,16.70
2022-11-30T21:36:30.208Z,16.45
2022-11-30T21:39:04.966Z,16.20
2022-11-30T21:41:33.448Z,16.88
2022-11-30T21:44:00.747Z,17.65
2022-11-30T21:46:28.093Z,17.63
2022-11-30T21:48:55.392Z,17.55
2022-11-30T21:51:23.772Z,17.13
2022-11-30T21:53:52.954Z,15.90
2022-11-30T21:56:22.037Z,17.73
2022-11-30T21:58:50.235Z,16.77
2022-11-30T22:01:26.244Z,16.58
2022-11-30T22:03:56.528Z,18.17
2022-11-30T22:06:24.506Z,16.65
2022-11-30T22:08:52.101Z,18.08
2022-11-30T22:11:23.015Z,17.83
2022-11-30T22:13:50.957Z,16.10
2022-11-30T22:16:18.713Z,17.02
2022-11-30T22:18:46.307Z,16.95
2022-11-30T22:21:14.570Z,17.30
2022-11-30T22:23:43.280Z,20.60
2022-11-30T22:26:15.167Z,19.85
2022-11-30T22:28:43.905Z,19.58
2022-11-30T22:31:12.205Z,19.63
2022-11-30T22:33:40.405Z,19.88
2022-11-30T22:36:08.313Z,18.13
2022-11-30T22:38:35.652Z,19.45
2022-11-30T22:41:06.837Z,20.10
2022-11-30T22:43:34.434Z,21.08
2022-11-30T22:46:09.340Z,19.80
2022-11-30T22:48:37.109Z,19.65
2022-11-30T22:51:09.352Z,21.95
2022-11-30T22:53:37.191Z,19.98
2022-11-30T22:56:05.788Z,21.52
2022-11-30T22:58:33.438Z,23.48
2022-11-30T23:01:08.398Z,22.48
2022-11-30T23:03:35.923Z,21.38
2022-11-30T23:06:03.317Z,20.50
2022-11-30T23:08:31.307Z,19.95
2022-11-30T23:11:02.364Z,22.65
2022-11-30T23:13:29.957Z,19.48
2022-11-30T23:15:59.819Z,21.17
2022-11-30T23:18:30.493Z,21.58
2022-11-30T23:20:58.055Z,20.27
2022-11-30T23:23:25.299Z,20.65
2022-11-30T23:25:52.593Z,19.95
2022-11-30T23:28:19.863Z,21.17
2022-11-30T23:30:47.096Z,19.10
2022-11-30T23:33:14.388Z,20.33
2022-11-30T23:35:44.867Z,19.90
2022-11-30T23:38:12.406Z,18.83
2022-11-30T23:40:39.697Z,18.00
2022-11-30T23:43:06.914Z,19.15
2022-11-30T23:45:34.189Z,19.58
2022-11-30T23:48:01.398Z,20.85
2022-11-30T23:50:28.612Z,19.85
2022-11-30T23:52:55.854Z,18.45
2022-11-30T23:55:23.082Z,19.98
2022-11-30T23:57:50.348Z,19.02
